Strona główna
METAR-TAF:

METAR-TAF

Lotnisko :

Port lotniczy Kuantan

Kuantan, Malezja

Szerokość geograficzna: 03-37N, Długość geograficzna: 103-13E, wysokość: 18 m

Aktualna obserwacja pogody

Raport powstał 1 godzina i 11 minut temu, godzina 04:00 UTC
Wiatr 6 kt od północno-północny zachód, zmienny między zachodnio-północny zachód i wschodnio-północny wschód
Temperatura 28°C
Wilgotność 79%
Ciśnienie 1013 hPa
Widzialność 10 km lub więcej
Rozproszone chmury na wysokości 2000 ft

METAR: WMKD 070400Z 34006KT 290V070 9999 SCT020 28/24 Q1013 NOSIG

czas: 13:11 (05:11 UTC)


TAF: brakujący

Obserwacja i prognoza pogody dla ponad 4000 lotnisk (raport METAR i TAF).

Dostępne stacje oznaczono żółtymi i czerwonymi punktami na mapie.

Najedź kursorem aby zobaczyć nazwę stacji.

Kliknij aby zobaczyć obserwacje i prognozy pogody.

Aby zmienić mapę: kliknij na zielony przycisk z czarnym krzyżykiem, aby powiększyć; na zielony przycisk z myślnikiem, aby pomniejszyć; na zielone strzałki, aby przejść do map sąsiednich.


METAR-TAF: